Time;durP1;ratioP1;P1;durP2;ratioP2;P2;SDS_P1;SDS_P2;PMS_P1;PMS_P2;Temp;Humidity;BMP_temperature;BMP_pressure;BME280_temperature;BME280_humidity;BME280_pressure;Samples;Min_cycle;Max_cycle;Signal;HPM_P1;HPM_P2
2022/04/02 00:01:44;;;;;;;;;;;;;;;;;;5100703;28;19920;-80
2022/04/02 00:04:20;;;;;;;;;;;;;;;;;;5083817;28;19920;-80
2022/04/02 00:06:52;;;;;;;;;;;;;;;;;;5084066;28;19916;-80
2022/04/02 00:09:21;;;;;;;;;;;;;;;;;;5095329;28;19922;-80
2022/04/02 00:11:47;;;;;;;;;;;;;;;;;;5103775;28;19915;-80
2022/04/02 00:14:14;;;;;;;;;;;;;;;;;;5120263;28;19920;-80
2022/04/02 00:16:40;;;;;;;;;;;;;;;;;;5120965;28;19955;-80
2022/04/02 00:19:06;;;;;;;;;;;;;;;;;;5100347;28;19920;-80
2022/04/02 00:21:31;;;;;;;;;;;;;;;;;;5100174;28;19968;-80
2022/04/02 00:23:56;;;;;;;;;;;;;;;;;;5100598;28;19916;-80
2022/04/02 00:26:22;;;;;;;;;;;;;;;;;;5101263;28;19920;-80
2022/04/02 00:28:48;;;;;;;;;;;;;;;;;;5100340;28;19923;-80
2022/04/02 00:31:15;;;;;;;;;;;;;;;;;;5098575;28;19916;-80
2022/04/02 00:33:41;;;;;;;;;;;;;;;;;;5099706;28;19919;-80
2022/04/02 00:36:07;;;;;;;;;;;;;;;;;;5098935;28;20014;-80
2022/04/02 00:38:33;;;;;;;;;;;;;;;;;;5100154;28;19963;-80
2022/04/02 00:40:58;;;;;;;;;;;;;;;;;;5123064;27;19915;-80
2022/04/02 00:43:23;;;;;;;;;;;;;;;;;;5140354;27;19922;-80
2022/04/02 00:45:51;;;;;;;;;;;;;;;;;;5141500;27;19919;-80
2022/04/02 00:48:17;;;;;;;;;;;;;;;;;;5141714;27;19917;-81
2022/04/02 00:50:44;;;;;;;;;;;;;;;;;;5141593;27;19938;-81
2022/04/02 00:53:09;;;;;;;;;;;;;;;;;;5143540;27;19940;-81
2022/04/02 00:55:35;;;;;;;;;;;;;;;;;;5127314;27;20436;-81
2022/04/02 00:58:02;;;;;;;;;;;;;;;;;;5120611;28;19958;-80
2022/04/02 01:00:27;;;;;;;;;;;;;;;;;;5119779;28;20293;-80
2022/04/02 01:02:53;;;;;;;;;;;;;;;;;;5121304;28;20006;-80
2022/04/02 01:05:18;;;;;;;;;;;;;;;;;;5106639;27;19955;-80
2022/04/02 01:07:44;;;;;;;;;;;;;;;;;;5138979;27;19923;-80
2022/04/02 01:10:09;;;;;;;;;;;;;;;;;;5139263;27;20373;-80
2022/04/02 01:12:35;;;;;;;;;;;;;;;;;;5139304;27;19926;-80
2022/04/02 01:15:00;;;;;;;;;;;;;;;;;;5139833;27;19926;-80
2022/04/02 01:17:36;;;;;;;;;;;;;;;;;;5138351;27;20360;-80
2022/04/02 01:20:03;;;;;;;;;;;;;;;;;;5134799;27;19915;-80
2022/04/02 01:22:33;;;;;;;;;;;;;;;;;;5117410;28;19922;-80
2022/04/02 01:25:02;;;;;;;;;;;;;;;;;;5120602;28;19969;-80
2022/04/02 01:27:33;;;;;;;;;;;;;;;;;;5120254;28;20319;-80
2022/04/02 01:29:58;;;;;;;;;;;;;;;;;;5120757;27;19916;-80
2022/04/02 01:32:24;;;;;;;;;;;;;;;;;;5140502;27;19915;-80
2022/04/02 01:35:00;;;;;;;;;;;;;;;;;;5139454;27;19968;-80
2022/04/02 01:37:25;;;;;;;;;;;;;;;;;;5141148;27;19915;-80
2022/04/02 01:39:56;;;;;;;;;;;;;;;;;;5140058;27;19915;-80
2022/04/02 01:42:26;;;;;;;;;;;;;;;;;;5139673;27;20384;-80
2022/04/02 01:45:17;;;;;;;;;;;;;;;;;;5126825;27;19916;-80
2022/04/02 01:47:51;;;;;;;;;;;;;;;;;;5118948;28;19916;-80
2022/04/02 01:50:17;;;;;;;;;;;;;;;;;;5102026;28;19916;-80
2022/04/02 01:52:47;;;;;;;;;;;;;;;;;;5118559;28;19923;-80
2022/04/02 01:55:18;;;;;;;;;;;;;;;;;;5117674;28;20137;-80
2022/04/02 01:57:49;;;;;;;;;;;;;;;;;;5118538;28;19954;-79
2022/04/02 02:00:20;;;;;;;;;;;;;;;;;;5117626;28;19923;-79
2022/04/02 02:02:47;;;;;;;;;;;;;;;;;;5118494;28;19915;-79
2022/04/02 02:05:12;;;;;;;;;;;;;;;;;;5118141;28;19950;-79
2022/04/02 02:07:38;;;;;;;;;;;;;;;;;;5117792;28;19915;-79
2022/04/02 02:10:04;;;;;;;;;;;;;;;;;;5116446;28;19916;-79
2022/04/02 02:12:55;;;;;;;;;;;;;;;;;;5116187;28;19931;-79
2022/04/02 02:15:29;;;;;;;;;;;;;;;;;;5116425;28;19916;-79
2022/04/02 02:18:01;;;;;;;;;;;;;;;;;;5116310;28;19920;-79
2022/04/02 02:20:26;;;;;;;;;;;;;;;;;;5120156;28;19916;-79
2022/04/02 02:22:51;;;;;;;;;;;;;;;;;;5118055;28;20449;-80
2022/04/02 02:25:17;;;;;;;;;;;;;;;;;;5119264;28;19955;-80
2022/04/02 02:27:45;;;;;;;;;;;;;;;;;;5120926;28;19915;-79
2022/04/02 02:30:12;;;;;;;;;;;;;;;;;;5119401;28;19954;-80
2022/04/02 02:32:37;;;;;;;;;;;;;;;;;;5118518;28;19916;-79
2022/04/02 02:38:05;;;;;;;;;;;;;;;;;;5114155;28;20422;-79
2022/04/02 02:40:38;;;;;;;;;;;;;;;;;;5097052;28;19919;-79
2022/04/02 02:43:04;;;;;;;;;;;;;;;;;;5097196;28;19923;-79
2022/04/02 02:45:31;;;;;;;;;;;;;;;;;;5104840;28;19937;-79
2022/04/02 02:47:59;;;;;;;;;;;;;;;;;;5120387;28;19915;-79
2022/04/02 02:50:34;;;;;;;;;;;;;;;;;;5120224;28;19919;-79
2022/04/02 02:52:59;;;;;;;;;;;;;;;;;;5121231;28;19919;-79
2022/04/02 02:55:25;;;;;;;;;;;;;;;;;;5120075;28;19923;-79
2022/04/02 02:57:50;;;;;;;;;;;;;;;;;;5122929;28;19938;-80
2022/04/02 03:00:16;;;;;;;;;;;;;;;;;;5124477;28;19916;-80
2022/04/02 03:02:45;;;;;;;;;;;;;;;;;;5107332;28;20645;-80
2022/04/02 03:05:13;;;;;;;;;;;;;;;;;;5123375;28;19923;-80
2022/04/02 03:07:48;;;;;;;;;;;;;;;;;;5122405;28;19915;-79
2022/04/02 03:10:16;;;;;;;;;;;;;;;;;;5124132;28;19916;-79
2022/04/02 03:12:41;;;;;;;;;;;;;;;;;;5123702;28;19916;-80
2022/04/02 03:15:07;;;;;;;;;;;;;;;;;;5105841;28;19942;-80
2022/04/02 03:17:34;;;;;;;;;;;;;;;;;;5122245;28;19916;-79
2022/04/02 03:20:00;;;;;;;;;;;;;;;;;;5122413;28;19947;-79
2022/04/02 03:22:27;;;;;;;;;;;;;;;;;;5123160;28;19912;-80
2022/04/02 03:24:56;;;;;;;;;;;;;;;;;;5122348;28;19998;-79
2022/04/02 03:27:22;;;;;;;;;;;;;;;;;;5122952;28;19916;-80
2022/04/02 03:29:50;;;;;;;;;;;;;;;;;;5122768;28;19919;-80
2022/04/02 03:32:17;;;;;;;;;;;;;;;;;;5122695;28;19915;-79
2022/04/02 03:34:42;;;;;;;;;;;;;;;;;;5123341;28;20377;-79
2022/04/02 03:37:07;;;;;;;;;;;;;;;;;;5121902;28;19920;-79
2022/04/02 03:39:33;;;;;;;;;;;;;;;;;;5121968;28;19924;-79
2022/04/02 03:41:58;;;;;;;;;;;;;;;;;;5122393;28;20010;-79
2022/04/02 03:44:24;;;;;;;;;;;;;;;;;;5123281;27;19947;-79
2022/04/02 03:47:10;;;;;;;;;;;;;;;;;;5122068;28;20746;-79
2022/04/02 03:49:43;;;;;;;;;;;;;;;;;;5121437;28;20369;-79
2022/04/02 03:52:12;;;;;;;;;;;;;;;;;;5121173;28;19926;-79
2022/04/02 03:54:39;;;;;;;;;;;;;;;;;;5120045;28;19920;-79
2022/04/02 03:57:14;;;;;;;;;;;;;;;;;;5122215;28;20289;-79
2022/04/02 03:59:43;;;;;;;;;;;;;;;;;;5121404;28;19922;-78
2022/04/02 04:02:11;;;;;;;;;;;;;;;;;;5122203;28;20250;-79
2022/04/02 04:04:37;;;;;;;;;;;;;;;;;;5123175;27;19916;-79
2022/04/02 04:07:03;;;;;;;;;;;;;;;;;;5121838;28;19915;-79
2022/04/02 04:09:31;;;;;;;;;;;;;;;;;;5104712;28;19915;-79
2022/04/02 04:11:56;;;;;;;;;;;;;;;;;;5121218;28;19922;-79
2022/04/02 04:14:26;;;;;;;;;;;;;;;;;;5121167;28;19966;-79
2022/04/02 04:16:52;;;;;;;;;;;;;;;;;;5121402;27;19923;-79
2022/04/02 04:19:18;;;;;;;;;;;;;;;;;;5140792;27;19921;-79
2022/04/02 04:21:44;;;;;;;;;;;;;;;;;;5140485;27;19956;-79
2022/04/02 04:24:10;;;;;;;;;;;;;;;;;;5140394;27;19977;-79
2022/04/02 04:26:36;;;;;;;;;;;;;;;;;;5141825;27;20525;-79
2022/04/02 04:29:02;;;;;;;;;;;;;;;;;;5140584;27;19922;-79
2022/04/02 04:31:28;;;;;;;;;;;;;;;;;;5140584;27;19968;-79
2022/04/02 04:33:53;;;;;;;;;;;;;;;;;;5142965;27;19940;-79
2022/04/02 04:36:19;;;;;;;;;;;;;;;;;;5140751;27;19915;-79
2022/04/02 04:38:46;;;;;;;;;;;;;;;;;;5139674;27;19919;-79
2022/04/02 04:41:17;;;;;;;;;;;;;;;;;;5140043;27;19919;-79
2022/04/02 04:43:48;;;;;;;;;;;;;;;;;;5139651;27;19915;-79
2022/04/02 04:46:14;;;;;;;;;;;;;;;;;;5113945;28;19923;-79
2022/04/02 04:48:39;;;;;;;;;;;;;;;;;;5120440;28;19963;-79
2022/04/02 04:51:06;;;;;;;;;;;;;;;;;;5118751;28;19924;-79
2022/04/02 04:53:34;;;;;;;;;;;;;;;;;;5101848;28;19920;-79
2022/04/02 04:56:02;;;;;;;;;;;;;;;;;;5118799;28;19957;-79
2022/04/02 04:58:29;;;;;;;;;;;;;;;;;;5118778;28;20265;-79
2022/04/02 05:00:59;;;;;;;;;;;;;;;;;;5118921;28;19916;-79
2022/04/02 05:03:26;;;;;;;;;;;;;;;;;;5119373;27;19941;-79
2022/04/02 05:05:52;;;;;;;;;;;;;;;;;;5118714;28;19916;-79
2022/04/02 05:08:21;;;;;;;;;;;;;;;;;;5119192;28;19922;-79
2022/04/02 05:10:47;;;;;;;;;;;;;;;;;;5117371;28;19922;-79
2022/04/02 05:13:19;;;;;;;;;;;;;;;;;;5120397;28;19920;-79
2022/04/02 05:15:48;;;;;;;;;;;;;;;;;;5120163;28;19916;-79
2022/04/02 05:18:14;;;;;;;;;;;;;;;;;;5118227;28;19915;-79
2022/04/02 05:20:40;;;;;;;;;;;;;;;;;;5100943;28;20385;-79
2022/04/02 05:23:06;;;;;;;;;;;;;;;;;;5118975;28;19919;-79
2022/04/02 05:25:35;;;;;;;;;;;;;;;;;;5119947;28;19911;-80
2022/04/02 05:28:04;;;;;;;;;;;;;;;;;;5119649;28;20006;-80
2022/04/02 05:30:34;;;;;;;;;;;;;;;;;;5121497;28;20419;-80
2022/04/02 05:33:00;;;;;;;;;;;;;;;;;;5121785;28;19951;-79
2022/04/02 05:35:26;;;;;;;;;;;;;;;;;;5118762;28;19922;-79
2022/04/02 05:37:52;;;;;;;;;;;;;;;;;;5119983;28;19982;-79
2022/04/02 05:40:17;;;;;;;;;;;;;;;;;;5119556;28;19922;-79
2022/04/02 05:42:43;;;;;;;;;;;;;;;;;;5120770;28;19923;-79
2022/04/02 05:45:09;;;;;;;;;;;;;;;;;;5118572;28;20388;-79
2022/04/02 05:47:44;;;;;;;;;;;;;;;;;;5118667;28;20029;-79
2022/04/02 05:50:10;;;;;;;;;;;;;;;;;;5118557;27;19959;-79
2022/04/02 05:52:36;;;;;;;;;;;;;;;;;;5118613;28;19920;-79
2022/04/02 05:55:01;;;;;;;;;;;;;;;;;;5119289;28;19926;-81
2022/04/02 05:57:26;;;;;;;;;;;;;;;;;;5117727;28;19919;-78
2022/04/02 05:59:51;;;;;;;;;;;;;;;;;;5122648;28;19915;-79
2022/04/02 06:02:17;;;;;;;;;;;;;;;;;;5120821;28;19969;-77
2022/04/02 06:04:43;;;;;;;;;;;;;;;;;;5119485;28;19954;-78
2022/04/02 06:07:08;;;;;;;;;;;;;;;;;;5118669;28;19933;-78
2022/04/02 06:09:33;;;;;;;;;;;;;;;;;;5118018;28;19923;-78
2022/04/02 06:11:59;;;;;;;;;;;;;;;;;;5116117;28;19915;-78
2022/04/02 06:14:24;;;;;;;;;;;;;;;;;;5116766;28;19961;-78
2022/04/02 06:16:49;;;;;;;;;;;;;;;;;;5136498;28;20359;-78
2022/04/02 06:19:17;;;;;;;;;;;;;;;;;;5138880;27;19920;-78
2022/04/02 06:21:43;;;;;;;;;;;;;;;;;;5127224;27;19977;-78
2022/04/02 06:24:08;;;;;;;;;;;;;;;;;;5121188;28;20353;-78
2022/04/02 06:26:33;;;;;;;;;;;;;;;;;;5118065;28;19922;-78
2022/04/02 06:28:59;;;;;;;;;;;;;;;;;;5119335;27;19916;-78
2022/04/02 06:31:24;;;;;;;;;;;;;;;;;;5120420;28;19916;-78
2022/04/02 06:33:52;;;;;;;;;;;;;;;;;;5119326;28;19920;-79
2022/04/02 06:36:17;;;;;;;;;;;;;;;;;;5121371;28;19923;-78
2022/04/02 06:38:43;;;;;;;;;;;;;;;;;;5120033;28;19916;-79
2022/04/02 06:41:08;;;;;;;;;;;;;;;;;;5122940;28;19978;-78
2022/04/02 06:43:33;;;;;;;;;;;;;;;;;;5121713;28;20411;-78
2022/04/02 06:46:02;;;;;;;;;;;;;;;;;;5118831;28;19916;-78
2022/04/02 06:48:27;;;;;;;;;;;;;;;;;;5100274;28;19961;-77
2022/04/02 06:50:54;;;;;;;;;;;;;;;;;;5117866;28;20609;-77
2022/04/02 06:53:19;;;;;;;;;;;;;;;;;;5117135;28;19926;-77
2022/04/02 06:55:45;;;;;;;;;;;;;;;;;;5117953;28;20010;-80
2022/04/02 06:58:22;;;;;;;;;;;;;;;;;;5116870;28;19916;-77
2022/04/02 07:00:47;;;;;;;;;;;;;;;;;;5118672;28;20273;-77
2022/04/02 07:03:12;;;;;;;;;;;;;;;;;;5118417;28;19915;-76
2022/04/02 07:05:38;;;;;;;;;;;;;;;;;;5118620;28;19916;-77
2022/04/02 07:08:03;;;;;;;;;;;;;;;;;;5118576;28;19922;-77
2022/04/02 07:10:28;;;;;;;;;;;;;;;;;;5118413;28;19916;-77
2022/04/02 07:12:54;;;;;;;;;;;;;;;;;;5118247;28;19920;-77
2022/04/02 07:15:19;;;;;;;;;;;;;;;;;;5117575;28;19915;-76
2022/04/02 07:17:44;;;;;;;;;;;;;;;;;;5119008;28;19920;-77
2022/04/02 07:20:11;;;;;;;;;;;;;;;;;;5117922;28;19916;-77
2022/04/02 07:22:40;;;;;;;;;;;;;;;;;;5116912;28;20006;-78
2022/04/02 07:25:06;;;;;;;;;;;;;;;;;;5118559;28;19942;-77
2022/04/02 07:27:31;;;;;;;;;;;;;;;;;;5125316;28;19916;-79
2022/04/02 07:30:00;;;;;;;;;;;;;;;;;;5126552;28;19939;-79
2022/04/02 07:32:25;;;;;;;;;;;;;;;;;;5125737;28;19916;-79
2022/04/02 07:34:50;;;;;;;;;;;;;;;;;;5126334;28;20365;-80
2022/04/02 07:37:28;;;;;;;;;;;;;;;;;;5124498;28;20315;-79
2022/04/02 07:40:17;;;;;;;;;;;;;;;;;;5120799;28;19923;-78
2022/04/02 07:42:57;;;;;;;;;;;;;;;;;;5098975;28;19973;-77
2022/04/02 07:45:28;;;;;;;;;;;;;;;;;;5117827;28;19916;-78
2022/04/02 07:47:55;;;;;;;;;;;;;;;;;;5117137;28;19915;-78
2022/04/02 07:50:21;;;;;;;;;;;;;;;;;;5116900;28;20007;-77
2022/04/02 07:52:49;;;;;;;;;;;;;;;;;;5115813;28;19916;-77
2022/04/02 07:55:16;;;;;;;;;;;;;;;;;;5116804;28;20377;-78
2022/04/02 07:57:46;;;;;;;;;;;;;;;;;;5119573;28;19915;-78
2022/04/02 08:00:13;;;;;;;;;;;;;;;;;;5119209;28;19922;-78
2022/04/02 08:02:42;;;;;;;;;;;;;;;;;;5121883;28;19945;-78
2022/04/02 08:05:11;;;;;;;;;;;;;;;;;;5115241;28;19916;-77
2022/04/02 08:07:38;;;;;;;;;;;;;;;;;;5116611;28;19923;-77
2022/04/02 08:10:06;;;;;;;;;;;;;;;;;;5118840;28;20012;-78
2022/04/02 08:12:33;;;;;;;;;;;;;;;;;;5116093;28;19938;-77
2022/04/02 08:14:59;;;;;;;;;;;;;;;;;;5117140;27;20388;-77
2022/04/02 08:17:24;;;;;;;;;;;;;;;;;;5117365;27;19915;-79
2022/04/02 08:19:52;;;;;;;;;;;;;;;;;;5116528;28;19997;-78
2022/04/02 08:22:20;;;;;;;;;;;;;;;;;;5117887;27;19916;-76
2022/04/02 08:24:46;;;;;;;;;;;;;;;;;;5116153;28;19927;-76
2022/04/02 08:27:30;;;;;;;;;;;;;;;;;;5116367;28;20369;-77
2022/04/02 08:30:04;;;;;;;;;;;;;;;;;;5116422;28;19988;-78
2022/04/02 08:32:48;;;;;;;;;;;;;;;;;;5118208;28;20002;-77
2022/04/02 08:35:16;;;;;;;;;;;;;;;;;;5115153;28;19973;-77
2022/04/02 08:38:05;;;;;;;;;;;;;;;;;;5116694;28;20289;-77
2022/04/02 08:40:44;;;;;;;;;;;;;;;;;;5117364;28;19916;-78
2022/04/02 08:43:12;;;;;;;;;;;;;;;;;;5117898;28;19916;-78
2022/04/02 08:45:54;;;;;;;;;;;;;;;;;;5116744;28;19916;-77
2022/04/02 08:48:29;;;;;;;;;;;;;;;;;;5118750;28;19916;-78
2022/04/02 08:50:55;;;;;;;;;;;;;;;;;;5117346;28;20377;-78
2022/04/02 08:53:37;;;;;;;;;;;;;;;;;;5116378;27;19920;-77
2022/04/02 08:56:05;;;;;;;;;;;;;;;;;;5116690;28;19915;-79
2022/04/02 08:58:30;;;;;;;;;;;;;;;;;;5124562;28;19926;-81
2022/04/02 09:01:09;;;;;;;;;;;;;;;;;;5127249;28;19916;-80
2022/04/02 09:03:40;;;;;;;;;;;;;;;;;;5130577;28;19943;-80
2022/04/02 09:06:06;;;;;;;;;;;;;;;;;;5124238;28;20019;-77
2022/04/02 09:08:31;;;;;;;;;;;;;;;;;;5118659;28;19963;-78
2022/04/02 09:11:05;;;;;;;;;;;;;;;;;;5118717;28;19923;-79
2022/04/02 09:13:45;;;;;;;;;;;;;;;;;;5117446;28;19919;-79
2022/04/02 09:16:20;;;;;;;;;;;;;;;;;;5117288;28;20006;-80
2022/04/02 09:19:04;;;;;;;;;;;;;;;;;;5121272;28;19958;-79
2022/04/02 09:21:33;;;;;;;;;;;;;;;;;;5123620;28;19938;-82
2022/04/02 09:24:03;;;;;;;;;;;;;;;;;;5124944;28;20018;-80
2022/04/02 09:26:28;;;;;;;;;;;;;;;;;;5124277;28;19920;-78
2022/04/02 09:28:54;;;;;;;;;;;;;;;;;;5123528;28;19921;-80
2022/04/02 09:31:46;;;;;;;;;;;;;;;;;;5127509;28;19915;-80
2022/04/02 09:34:36;;;;;;;;;;;;;;;;;;5118240;28;19942;-79
2022/04/02 09:37:23;;;;;;;;;;;;;;;;;;5116562;28;19915;-79
2022/04/02 09:40:02;;;;;;;;;;;;;;;;;;5116703;28;19920;-80
2022/04/02 09:42:41;;;;;;;;;;;;;;;;;;5116069;28;19974;-78
2022/04/02 09:45:22;;;;;;;;;;;;;;;;;;5112522;28;19916;-78
2022/04/02 09:47:51;;;;;;;;;;;;;;;;;;5112693;27;19983;-78
2022/04/02 09:50:17;;;;;;;;;;;;;;;;;;5107136;28;19916;-75
2022/04/02 09:52:49;;;;;;;;;;;;;;;;;;5111616;28;19919;-76
2022/04/02 09:55:15;;;;;;;;;;;;;;;;;;5110821;28;20340;-78
2022/04/02 09:57:46;;;;;;;;;;;;;;;;;;5114914;28;19922;-77
2022/04/02 10:00:16;;;;;;;;;;;;;;;;;;5114266;28;19942;-75
2022/04/02 10:03:02;;;;;;;;;;;;;;;;;;5113450;28;19916;-76
2022/04/02 10:05:46;;;;;;;;;;;;;;;;;;5122557;28;19916;-78
2022/04/02 10:08:14;;;;;;;;;;;;;;;;;;5105868;28;20011;-78
2022/04/02 10:10:41;;;;;;;;;;;;;;;;;;5109733;28;19973;-78
2022/04/02 10:13:07;;;;;;;;;;;;;;;;;;5110784;28;19920;-78
2022/04/02 10:15:33;;;;;;;;;;;;;;;;;;5114336;28;19941;-77
2022/04/02 10:18:01;;;;;;;;;;;;;;;;;;5114714;28;19998;-78
2022/04/02 10:20:31;;;;;;;;;;;;;;;;;;5113102;28;19916;-76
2022/04/02 10:23:16;;;;;;;;;;;;;;;;;;5114128;28;19920;-76
2022/04/02 10:26:00;;;;;;;;;;;;;;;;;;5114476;28;19916;-77
2022/04/02 10:28:27;;;;;;;;;;;;;;;;;;5113543;28;19915;-77
2022/04/02 10:30:55;;;;;;;;;;;;;;;;;;5112640;28;19916;-77
2022/04/02 10:33:26;;;;;;;;;;;;;;;;;;5113956;28;20351;-77
2022/04/02 10:35:53;;;;;;;;;;;;;;;;;;5113319;28;20254;-77
2022/04/02 10:38:18;;;;;;;;;;;;;;;;;;5113821;27;20345;-77
2022/04/02 10:40:51;;;;;;;;;;;;;;;;;;5113137;28;19916;-78
2022/04/02 10:43:19;;;;;;;;;;;;;;;;;;5115317;28;19923;-77
2022/04/02 10:45:45;;;;;;;;;;;;;;;;;;5112966;28;20331;-77
2022/04/02 10:48:12;;;;;;;;;;;;;;;;;;5114047;28;19969;-77
2022/04/02 10:50:39;;;;;;;;;;;;;;;;;;5113878;28;19915;-77
2022/04/02 10:53:05;;;;;;;;;;;;;;;;;;5113966;28;19926;-77
2022/04/02 10:55:30;;;;;;;;;;;;;;;;;;5117277;28;19974;-77
2022/04/02 10:57:57;;;;;;;;;;;;;;;;;;5115212;28;19919;-77
2022/04/02 11:00:24;;;;;;;;;;;;;;;;;;5114451;28;20007;-77
2022/04/02 11:03:01;;;;;;;;;;;;;;;;;;5116793;28;19922;-81
2022/04/02 11:05:29;;;;;;;;;;;;;;;;;;5119898;28;19916;-79
2022/04/02 11:08:03;;;;;;;;;;;;;;;;;;5121781;28;19915;-78
2022/04/02 11:10:28;;;;;;;;;;;;;;;;;;5122397;28;19919;-78
2022/04/02 11:13:01;;;;;;;;;;;;;;;;;;5121151;28;19915;-77
2022/04/02 11:15:31;;;;;;;;;;;;;;;;;;5123072;27;19972;-82
2022/04/02 11:17:58;;;;;;;;;;;;;;;;;;5122120;28;19922;-78
2022/04/02 11:20:25;;;;;;;;;;;;;;;;;;5121825;28;19916;-80
2022/04/02 11:22:54;;;;;;;;;;;;;;;;;;5119435;28;19969;-79
2022/04/02 11:25:22;;;;;;;;;;;;;;;;;;5091343;28;19924;-77
2022/04/02 11:27:51;;;;;;;;;;;;;;;;;;5119440;28;19916;-79
2022/04/02 11:30:17;;;;;;;;;;;;;;;;;;5116116;28;19919;-77
2022/04/02 11:32:44;;;;;;;;;;;;;;;;;;5115061;28;19916;-77
2022/04/02 11:35:13;;;;;;;;;;;;;;;;;;5116429;28;19954;-75
2022/04/02 11:37:50;;;;;;;;;;;;;;;;;;5116109;28;19916;-76
2022/04/02 11:40:17;;;;;;;;;;;;;;;;;;5116794;28;19924;-76
2022/04/02 11:42:46;;;;;;;;;;;;;;;;;;5117099;28;20369;-76
2022/04/02 11:45:16;;;;;;;;;;;;;;;;;;5117365;28;19920;-77
2022/04/02 11:47:46;;;;;;;;;;;;;;;;;;5116969;28;19916;-76
2022/04/02 11:50:12;;;;;;;;;;;;;;;;;;5116333;28;19982;-75
2022/04/02 11:52:51;;;;;;;;;;;;;;;;;;5116918;28;19916;-76
2022/04/02 11:55:16;;;;;;;;;;;;;;;;;;5116760;28;19927;-75
2022/04/02 11:57:56;;;;;;;;;;;;;;;;;;5116865;28;19961;-76
2022/04/02 12:00:29;;;;;;;;;;;;;;;;;;5098335;28;19915;-75
2022/04/02 12:02:54;;;;;;;;;;;;;;;;;;5116711;28;19919;-75
2022/04/02 12:05:22;;;;;;;;;;;;;;;;;;5116568;28;19916;-75
2022/04/02 12:07:49;;;;;;;;;;;;;;;;;;5116555;28;19938;-75
2022/04/02 12:10:14;;;;;;;;;;;;;;;;;;5116399;28;19920;-76
2022/04/02 12:12:43;;;;;;;;;;;;;;;;;;5118247;28;19916;-78
2022/04/02 12:15:09;;;;;;;;;;;;;;;;;;5120298;28;19955;-79
2022/04/02 12:17:36;;;;;;;;;;;;;;;;;;5119759;28;20003;-77
2022/04/02 12:20:02;;;;;;;;;;;;;;;;;;5118898;27;19947;-78
2022/04/02 12:22:31;;;;;;;;;;;;;;;;;;5121768;28;20274;-76
2022/04/02 12:24:58;;;;;;;;;;;;;;;;;;5118388;28;19916;-78
2022/04/02 12:27:24;;;;;;;;;;;;;;;;;;5118464;28;19920;-79
2022/04/02 12:29:51;;;;;;;;;;;;;;;;;;5121343;28;19927;-78
2022/04/02 12:32:32;;;;;;;;;;;;;;;;;;5115236;28;20014;-83
2022/04/02 12:34:59;;;;;;;;;;;;;;;;;;5115687;28;19943;-81
2022/04/02 12:37:27;;;;;;;;;;;;;;;;;;5118827;27;20022;-79
2022/04/02 12:39:53;;;;;;;;;;;;;;;;;;5117242;28;20300;-80
2022/04/02 12:42:37;;;;;;;;;;;;;;;;;;5117335;28;19956;-80
2022/04/02 12:45:06;;;;;;;;;;;;;;;;;;5124646;27;19947;-78
2022/04/02 12:47:33;;;;;;;;;;;;;;;;;;5113081;27;20339;-78
2022/04/02 12:50:09;;;;;;;;;;;;;;;;;;5121589;28;19916;-81
2022/04/02 12:52:43;;;;;;;;;;;;;;;;;;5098098;28;19916;-80
2022/04/02 12:55:15;;;;;;;;;;;;;;;;;;5119546;28;19920;-80
2022/04/02 12:57:45;;;;;;;;;;;;;;;;;;5104937;27;19961;-78
2022/04/02 13:00:23;;;;;;;;;;;;;;;;;;5118615;28;19912;-79
2022/04/02 13:02:50;;;;;;;;;;;;;;;;;;5108680;28;19976;-79
2022/04/02 13:05:16;;;;;;;;;;;;;;;;;;5098376;28;20035;-78
2022/04/02 13:07:52;;;;;;;;;;;;;;;;;;5115680;28;20389;-80
2022/04/02 13:10:17;;;;;;;;;;;;;;;;;;5120562;28;19972;-79
2022/04/02 13:12:43;;;;;;;;;;;;;;;;;;5102007;28;20445;-77
2022/04/02 13:15:10;;;;;;;;;;;;;;;;;;5094923;28;19924;-78
2022/04/02 13:17:39;;;;;;;;;;;;;;;;;;5104577;27;20281;-80
2022/04/02 13:22:52;;;;;;;;;;;;;;;;;;5115899;28;20277;-76
2022/04/02 13:25:18;;;;;;;;;;;;;;;;;;5113497;28;19916;-76
2022/04/02 13:28:01;;;;;;;;;;;;;;;;;;5114655;28;19915;-77
2022/04/02 13:30:34;;;;;;;;;;;;;;;;;;5114131;28;19915;-77
2022/04/02 13:33:17;;;;;;;;;;;;;;;;;;5114988;28;19915;-77
2022/04/02 13:35:50;;;;;;;;;;;;;;;;;;5115142;28;20048;-76
2022/04/02 13:38:16;;;;;;;;;;;;;;;;;;5113650;28;19927;-77
2022/04/02 13:40:44;;;;;;;;;;;;;;;;;;5114509;28;19915;-76
2022/04/02 13:43:09;;;;;;;;;;;;;;;;;;5115034;28;19911;-77
2022/04/02 13:45:46;;;;;;;;;;;;;;;;;;5114596;28;19915;-77
2022/04/02 13:48:13;;;;;;;;;;;;;;;;;;5114288;28;19943;-77
2022/04/02 13:50:43;;;;;;;;;;;;;;;;;;5114693;28;19922;-76
2022/04/02 13:53:09;;;;;;;;;;;;;;;;;;5113302;28;19926;-77
2022/04/02 13:55:35;;;;;;;;;;;;;;;;;;5114286;28;20389;-77
2022/04/02 13:58:05;;;;;;;;;;;;;;;;;;5101286;28;20370;-77
2022/04/02 14:00:37;;;;;;;;;;;;;;;;;;5092740;28;19962;-77
2022/04/02 14:03:06;;;;;;;;;;;;;;;;;;5093845;28;19924;-77
2022/04/02 14:05:32;;;;;;;;;;;;;;;;;;5093806;28;20301;-77
2022/04/02 14:07:58;;;;;;;;;;;;;;;;;;5093898;28;19916;-76
2022/04/02 14:10:23;;;;;;;;;;;;;;;;;;5093910;28;20340;-76
2022/04/02 14:12:49;;;;;;;;;;;;;;;;;;5093034;28;19917;-77
2022/04/02 14:15:15;;;;;;;;;;;;;;;;;;5093969;28;19927;-77
2022/04/02 14:17:44;;;;;;;;;;;;;;;;;;5092785;28;19920;-77
2022/04/02 14:20:11;;;;;;;;;;;;;;;;;;5093987;28;19916;-78
2022/04/02 14:22:56;;;;;;;;;;;;;;;;;;5093769;28;20018;-77
2022/04/02 14:25:22;;;;;;;;;;;;;;;;;;5093165;28;19923;-77
2022/04/02 14:28:05;;;;;;;;;;;;;;;;;;5094217;28;20002;-77
2022/04/02 14:30:30;;;;;;;;;;;;;;;;;;5094226;28;19923;-78
2022/04/02 14:33:22;;;;;;;;;;;;;;;;;;5092838;28;19916;-79
2022/04/02 14:36:08;;;;;;;;;;;;;;;;;;5092633;28;20399;-77
2022/04/02 14:38:48;;;;;;;;;;;;;;;;;;5092514;28;19923;-79
2022/04/02 14:41:26;;;;;;;;;;;;;;;;;;5092240;28;19919;-77
2022/04/02 14:44:16;;;;;;;;;;;;;;;;;;5097232;28;19959;-79
2022/04/02 14:46:48;;;;;;;;;;;;;;;;;;5096587;28;19923;-77
2022/04/02 14:49:32;;;;;;;;;;;;;;;;;;5097974;28;19965;-79
2022/04/02 14:52:02;;;;;;;;;;;;;;;;;;5111738;28;19920;-78
2022/04/02 14:54:27;;;;;;;;;;;;;;;;;;5117471;28;20011;-78
2022/04/02 14:57:03;;;;;;;;;;;;;;;;;;5113374;28;19970;-77
2022/04/02 14:59:47;;;;;;;;;;;;;;;;;;5096201;28;19959;-78
2022/04/02 15:02:13;;;;;;;;;;;;;;;;;;5097225;28;19916;-78
2022/04/02 15:04:57;;;;;;;;;;;;;;;;;;5097097;28;20007;-78
2022/04/02 15:07:35;;;;;;;;;;;;;;;;;;5098868;28;19923;-78
2022/04/02 15:10:06;;;;;;;;;;;;;;;;;;5099596;28;19923;-79
2022/04/02 15:12:38;;;;;;;;;;;;;;;;;;5100276;28;19923;-80
2022/04/02 15:15:05;;;;;;;;;;;;;;;;;;5113014;28;19926;-78
2022/04/02 15:17:33;;;;;;;;;;;;;;;;;;5119944;28;19941;-78
2022/04/02 15:20:01;;;;;;;;;;;;;;;;;;5119405;28;19966;-78
2022/04/02 15:22:28;;;;;;;;;;;;;;;;;;5100384;28;19920;-78
2022/04/02 15:24:59;;;;;;;;;;;;;;;;;;5118438;28;20354;-79
2022/04/02 15:27:43;;;;;;;;;;;;;;;;;;5117230;28;19916;-77
2022/04/02 15:30:08;;;;;;;;;;;;;;;;;;5116971;28;20010;-78
2022/04/02 15:32:40;;;;;;;;;;;;;;;;;;5115975;28;19947;-78
2022/04/02 15:35:10;;;;;;;;;;;;;;;;;;5117267;28;20301;-78
2022/04/02 15:37:37;;;;;;;;;;;;;;;;;;5102876;28;20344;-78
2022/04/02 15:40:10;;;;;;;;;;;;;;;;;;5096766;28;20011;-79
2022/04/02 15:42:43;;;;;;;;;;;;;;;;;;5096008;28;19920;-78
2022/04/02 15:45:09;;;;;;;;;;;;;;;;;;5119238;27;20433;-79
2022/04/02 15:47:45;;;;;;;;;;;;;;;;;;5137644;27;19919;-80
2022/04/02 15:50:11;;;;;;;;;;;;;;;;;;5138119;27;19915;-79
2022/04/02 15:52:37;;;;;;;;;;;;;;;;;;5137250;27;19922;-77
2022/04/02 15:55:12;;;;;;;;;;;;;;;;;;5135556;27;19919;-77
2022/04/02 15:57:37;;;;;;;;;;;;;;;;;;5137342;27;19915;-77
2022/04/02 16:00:02;;;;;;;;;;;;;;;;;;5137269;27;19915;-76
2022/04/02 16:02:36;;;;;;;;;;;;;;;;;;5137065;27;19915;-77
2022/04/02 16:05:08;;;;;;;;;;;;;;;;;;5137207;27;19923;-77
2022/04/02 16:07:34;;;;;;;;;;;;;;;;;;5137320;27;20006;-77
2022/04/02 16:09:59;;;;;;;;;;;;;;;;;;5097279;27;19947;-77
2022/04/02 16:12:29;;;;;;;;;;;;;;;;;;5104388;27;20401;-77
2022/04/02 16:15:14;;;;;;;;;;;;;;;;;;5124670;27;20373;-77
2022/04/02 16:17:59;;;;;;;;;;;;;;;;;;5115615;27;19916;-76
2022/04/02 16:20:25;;;;;;;;;;;;;;;;;;5109424;28;19916;-76
2022/04/02 16:22:52;;;;;;;;;;;;;;;;;;5103825;27;19911;-77
2022/04/02 16:25:17;;;;;;;;;;;;;;;;;;5095478;28;19923;-77
2022/04/02 16:27:47;;;;;;;;;;;;;;;;;;5095337;28;19915;-77
2022/04/02 16:30:13;;;;;;;;;;;;;;;;;;5104725;27;19966;-77
2022/04/02 16:32:42;;;;;;;;;;;;;;;;;;5102866;28;19915;-76
2022/04/02 16:35:10;;;;;;;;;;;;;;;;;;5102846;28;19920;-76
2022/04/02 16:37:35;;;;;;;;;;;;;;;;;;5100764;28;19958;-76
2022/04/02 16:40:01;;;;;;;;;;;;;;;;;;5114682;28;19916;-77
2022/04/02 16:42:27;;;;;;;;;;;;;;;;;;5108640;28;19941;-77
2022/04/02 16:44:56;;;;;;;;;;;;;;;;;;5095533;28;20301;-77
2022/04/02 16:47:23;;;;;;;;;;;;;;;;;;5100945;28;19915;-77
2022/04/02 16:49:49;;;;;;;;;;;;;;;;;;5113011;28;19927;-76
2022/04/02 16:52:16;;;;;;;;;;;;;;;;;;5098289;28;19919;-76
2022/04/02 16:54:42;;;;;;;;;;;;;;;;;;5095674;28;19984;-77
2022/04/02 16:57:30;;;;;;;;;;;;;;;;;;5080922;28;19916;-76
2022/04/02 17:00:05;;;;;;;;;;;;;;;;;;5094906;28;19923;-77
2022/04/02 17:02:50;;;;;;;;;;;;;;;;;;5107439;27;20063;-76
2022/04/02 17:05:19;;;;;;;;;;;;;;;;;;5136067;27;19924;-77
2022/04/02 17:07:49;;;;;;;;;;;;;;;;;;5136080;27;20284;-77